Time;durP1;ratioP1;P1;durP2;ratioP2;P2;SDS_P1;SDS_P2;PMS_P1;PMS_P2;Temp;Humidity;BMP_temperature;BMP_pressure;BME280_temperature;BME280_humidity;BME280_pressure;Samples;Min_cycle;Max_cycle;Signal;HPM_P1;HPM_P2
2022/12/20 00:02:07;;;;;;;41.45;21.80;;;;;;;1.38;83.86;101299.23;1651418;84;21010;-77
2022/12/20 00:04:52;;;;;;;41.33;20.75;;;;;;;1.38;83.87;101298.37;1651889;84;21528;-77
2022/12/20 00:07:38;;;;;;;45.30;23.35;;;;;;;1.38;83.94;101298.37;1651021;84;21529;-78
2022/12/20 00:10:23;;;;;;;48.60;23.85;;;;;;;1.38;83.88;101300.52;1652658;84;21039;-77
2022/12/20 00:13:08;;;;;;;43.65;21.65;;;;;;;1.36;83.91;101306.38;1648928;84;21373;-77
2022/12/20 00:16:19;;;;;;;43.80;21.12;;;;;;;1.35;83.90;101309.33;1651244;84;20966;-77
2022/12/20 00:19:06;;;;;;;44.50;23.25;;;;;;;1.35;84.02;101299.55;1648837;84;21059;-77
2022/12/20 00:21:51;;;;;;;39.75;21.45;;;;;;;1.35;84.09;101304.23;1651526;84;21614;-77
2022/12/20 00:24:36;;;;;;;41.42;22.32;;;;;;;1.35;83.98;101300.41;1651420;84;21019;-77
2022/12/20 00:27:21;;;;;;;38.53;20.10;;;;;;;1.33;84.00;101294.00;1652343;84;20927;-77
2022/12/20 00:30:08;;;;;;;40.28;21.60;;;;;;;1.32;84.04;101289.72;1650496;84;21408;-77
2022/12/20 00:32:53;;;;;;;41.63;22.48;;;;;;;1.31;84.05;101284.16;1653833;84;20947;-77
2022/12/20 00:35:42;;;;;;;43.02;22.13;;;;;;;1.30;84.07;101284.98;1651358;84;21459;-77
2022/12/20 00:38:27;;;;;;;41.18;20.30;;;;;;;1.30;84.12;101277.75;1650861;84;21597;-77
2022/12/20 00:41:19;;;;;;;42.93;21.87;;;;;;;1.30;84.08;101284.11;1650997;84;20965;-77
2022/12/20 00:44:04;;;;;;;34.88;18.77;;;;;;;1.30;84.11;101279.02;1651862;84;20926;-77
2022/12/20 00:46:49;;;;;;;44.43;22.43;;;;;;;1.30;84.09;101272.24;1653485;84;20963;-77
2022/12/20 00:49:34;;;;;;;43.90;21.60;;;;;;;1.30;84.15;101277.75;1650354;84;21353;-77
2022/12/20 00:52:19;;;;;;;37.53;19.37;;;;;;;1.30;84.13;101258.64;1653198;84;21537;-77
2022/12/20 00:55:05;;;;;;;37.35;19.40;;;;;;;1.30;84.11;101270.10;1650519;84;20918;-77
2022/12/20 00:57:49;;;;;;;44.48;22.80;;;;;;;1.29;84.23;101254.36;1651642;84;21483;-77
2022/12/20 01:00:34;;;;;;;38.02;20.37;;;;;;;1.28;84.21;101261.14;1649843;84;20931;-77
2022/12/20 01:03:20;;;;;;;37.25;20.12;;;;;;;1.27;84.16;101263.23;1651118;84;20971;-77
2022/12/20 01:06:05;;;;;;;44.33;21.42;;;;;;;1.25;84.17;101256.35;1651435;84;21430;-78
2022/12/20 01:08:52;;;;;;;38.38;21.15;;;;;;;1.23;84.17;101265.62;1650484;84;21605;-77
2022/12/20 01:11:38;;;;;;;39.58;21.40;;;;;;;1.24;84.28;101266.08;1649984;84;38541;-77
2022/12/20 01:14:23;;;;;;;42.25;21.20;;;;;;;1.24;84.27;101264.41;1650616;84;21341;-77
2022/12/20 01:17:08;;;;;;;38.75;19.48;;;;;;;1.25;84.38;101256.35;1650495;84;20923;-77
2022/12/20 01:19:53;;;;;;;38.02;20.15;;;;;;;1.25;84.34;101261.45;1650210;84;20932;-77
2022/12/20 01:22:38;;;;;;;40.43;21.80;;;;;;;1.27;84.34;101258.13;1650505;84;20971;-77
2022/12/20 01:25:23;;;;;;;44.05;21.80;;;;;;;1.29;84.39;101261.59;1652631;84;20955;-77
2022/12/20 01:28:08;;;;;;;39.13;21.60;;;;;;;1.31;84.41;101247.22;1651961;82;20978;-77
2022/12/20 01:30:54;;;;;;;43.85;22.22;;;;;;;1.32;84.41;101256.59;1651840;84;21424;-77
2022/12/20 01:33:39;;;;;;;37.38;20.00;;;;;;;1.33;84.40;101270.20;1650546;84;21554;-76
2022/12/20 01:36:31;;;;;;;44.50;21.57;;;;;;;1.32;84.42;101270.61;1653790;84;21344;-77
2022/12/20 01:39:16;;;;;;;42.53;20.97;;;;;;;1.32;84.38;101268.47;1653556;84;20991;-77
2022/12/20 01:42:01;;;;;;;44.47;20.03;;;;;;;1.31;84.39;101270.15;1650345;84;21368;-77
2022/12/20 01:44:50;;;;;;;37.98;21.45;;;;;;;1.30;84.41;101267.14;1649978;84;20998;-77
2022/12/20 01:47:37;;;;;;;39.73;20.15;;;;;;;1.29;84.39;101260.32;1601479;87;21082;-77
2022/12/20 01:50:22;;;;;;;39.78;20.12;;;;;;;1.28;84.37;101253.91;1603040;87;20973;-77
2022/12/20 01:53:07;;;;;;;36.30;19.82;;;;;;;1.26;84.40;101247.48;1602389;87;21057;-77
2022/12/20 01:55:53;;;;;;;42.08;20.60;;;;;;;1.25;84.45;101246.16;1603843;87;20961;-77
2022/12/20 01:58:39;;;;;;;39.83;19.75;;;;;;;1.24;84.48;101238.93;1570593;89;21945;-77
2022/12/20 02:01:24;;;;;;;38.95;19.98;;;;;;;1.23;84.49;101242.70;1603277;87;21934;-77
2022/12/20 02:04:09;;;;;;;43.07;20.70;;;;;;;1.24;84.51;101238.06;1602670;87;21464;-77
2022/12/20 02:06:56;;;;;;;35.87;18.80;;;;;;;1.24;84.50;101236.79;1602045;87;21392;-77
2022/12/20 02:09:41;;;;;;;41.35;20.50;;;;;;;1.25;84.51;101224.51;1607024;87;20952;-77
2022/12/20 02:12:31;;;;;;;39.50;20.37;;;;;;;1.25;84.55;101224.51;1606537;87;20998;-77
2022/12/20 02:15:41;;;;;;;39.65;20.65;;;;;;;1.26;84.57;101215.64;1606650;87;21040;-77
2022/12/20 02:18:34;;;;;;;39.70;20.80;;;;;;;1.28;84.63;101214.42;1605454;87;21068;-77
2022/12/20 02:21:35;;;;;;;38.25;18.95;;;;;;;1.30;84.63;101217.88;1606419;87;21033;-77
2022/12/20 02:24:54;;;;;;;36.05;20.80;;;;;;;1.31;84.64;101219.61;1623994;85;21540;-77
2022/12/20 02:28:28;;;;;;;37.98;20.45;;;;;;;1.32;84.66;101214.97;1631585;85;20990;-77
2022/12/20 02:31:17;;;;;;;38.08;19.52;;;;;;;1.33;84.74;101219.25;1630998;85;20957;-77
2022/12/20 02:34:04;;;;;;;42.25;21.05;;;;;;;1.33;84.68;101216.70;1656756;84;20922;-77
2022/12/20 02:36:49;;;;;;;36.00;18.82;;;;;;;1.33;84.67;101213.74;1658275;84;20911;-77
2022/12/20 02:39:37;;;;;;;38.90;20.27;;;;;;;1.36;84.68;101210.83;1627845;85;21514;-77
2022/12/20 02:42:25;;;;;;;40.10;21.62;;;;;;;1.36;84.65;101204.47;1622462;87;21601;-77
2022/12/20 02:45:16;;;;;;;39.05;19.80;;;;;;;1.38;84.67;101200.28;1623687;86;20941;-77
2022/12/20 02:48:08;;;;;;;39.55;20.15;;;;;;;1.38;84.69;101189.68;1623139;86;21428;-77
2022/12/20 02:50:57;;;;;;;35.38;18.85;;;;;;;1.40;84.71;101192.27;1622633;86;20929;-77
2022/12/20 02:53:42;;;;;;;37.50;19.92;;;;;;;1.39;84.75;101196.91;1624640;85;21486;-77
2022/12/20 02:56:41;;;;;;;33.57;18.60;;;;;;;1.41;84.79;101202.52;1623874;86;21020;-77
2022/12/20 02:59:46;;;;;;;36.08;20.08;;;;;;;1.44;84.78;101196.65;1625965;84;20958;-77
2022/12/20 03:03:21;;;;;;;38.93;20.27;;;;;;;1.46;84.79;101209.02;1624742;86;21491;-76
2022/12/20 03:05:21;;;;;;;41.77;21.12;;;;;;;1.48;84.84;101212.08;1623683;85;21208;-77
2022/12/20 03:08:06;;;;;;;42.17;22.75;;;;;;;1.51;84.86;101204.94;1608163;87;21368;-77
2022/12/20 03:10:53;;;;;;;38.85;21.33;;;;;;;1.52;84.84;101201.56;1619601;86;20973;-77
2022/12/20 03:13:38;;;;;;;43.50;22.60;;;;;;;1.54;84.84;101205.89;1623509;86;20962;-77
2022/12/20 03:16:23;;;;;;;38.73;22.10;;;;;;;1.55;84.87;101203.80;1622896;86;21456;-77
2022/12/20 03:19:08;;;;;;;37.67;21.37;;;;;;;1.59;84.85;101200.89;1625451;85;21435;-77
2022/12/20 03:21:53;;;;;;;39.18;20.62;;;;;;;1.60;84.83;101193.70;1621358;86;21371;-77
2022/12/20 03:24:38;;;;;;;37.85;19.40;;;;;;;1.60;84.86;101194.57;1624403;85;21558;-77
2022/12/20 03:27:24;;;;;;;37.33;20.00;;;;;;;1.62;84.86;101198.44;1626587;86;20988;-77
2022/12/20 03:30:09;;;;;;;;;;;;;;;1.61;84.85;101203.95;1627086;85;20958;-77
2022/12/20 03:32:55;;;;;;;22.27;13.48;;;;;;;1.63;84.94;101206.13;1597083;87;20129;-76
2022/12/20 03:35:40;;;;;;;37.20;18.67;;;;;;;1.64;84.90;101196.80;1622322;85;20981;-76
2022/12/20 03:38:25;;;;;;;33.38;18.50;;;;;;;1.63;84.92;101203.58;1618333;86;21057;-77
2022/12/20 03:41:10;;;;;;;34.20;18.43;;;;;;;1.65;84.91;101210.00;1533644;83;5001238;-77
2022/12/20 03:43:54;;;;;;;35.92;19.20;;;;;;;1.64;84.92;101209.14;1655013;83;20951;-77
2022/12/20 03:46:39;;;;;;;37.13;20.40;;;;;;;1.65;84.93;101191.75;1652472;84;21491;-77
2022/12/20 03:49:24;;;;;;;37.28;19.80;;;;;;;1.65;84.93;101194.30;1651347;84;20946;-77
2022/12/20 03:52:12;;;;;;;35.95;19.32;;;;;;;1.67;84.96;101199.44;1654275;84;21047;-77
2022/12/20 03:54:57;;;;;;;32.93;18.75;;;;;;;1.69;84.95;101196.53;1652082;84;20995;-77
2022/12/20 03:57:41;;;;;;;32.05;18.27;;;;;;;1.70;84.93;101204.62;1654712;84;20994;-76
2022/12/20 04:00:26;;;;;;;34.27;18.00;;;;;;;1.69;84.94;101201.62;1652606;84;20978;-77
2022/12/20 04:03:12;;;;;;;39.48;19.00;;;;;;;1.70;84.95;101192.30;1651461;84;21327;-76
2022/12/20 04:05:56;;;;;;;36.70;19.27;;;;;;;1.70;84.98;101186.78;1652064;84;21526;-77
2022/12/20 04:08:42;;;;;;;35.33;19.45;;;;;;;1.71;84.96;101187.23;1652584;84;20979;-77
2022/12/20 04:11:26;;;;;;;34.60;19.23;;;;;;;1.72;85.01;101190.24;1654053;84;20971;-77
2022/12/20 04:14:11;;;;;;;37.08;19.25;;;;;;;1.73;85.01;101187.28;1651242;84;21457;-76
2022/12/20 04:16:56;;;;;;;31.40;19.48;;;;;;;1.73;84.99;101189.83;1651062;84;21558;-76
2022/12/20 04:19:41;;;;;;;34.53;18.55;;;;;;;1.73;84.99;101189.83;1653774;84;21333;-76
2022/12/20 04:22:26;;;;;;;31.40;18.10;;;;;;;1.73;85.02;101193.66;1651541;84;20911;-76
2022/12/20 04:25:11;;;;;;;36.20;18.90;;;;;;;1.74;85.03;101194.11;1652077;84;21507;-77
2022/12/20 04:27:56;;;;;;;33.33;18.17;;;;;;;1.74;85.03;101195.39;1656177;83;21539;-77
2022/12/20 04:30:41;;;;;;;31.62;18.50;;;;;;;1.74;85.04;101197.94;1656464;84;20975;-77
2022/12/20 04:33:27;;;;;;;36.25;19.17;;;;;;;1.75;85.05;101208.17;1653994;84;20962;-77
2022/12/20 04:36:12;;;;;;;32.23;18.73;;;;;;;1.75;85.05;101199.66;1649388;84;20998;-77
2022/12/20 04:38:57;;;;;;;33.40;19.17;;;;;;;1.75;85.04;101195.84;1650434;83;21418;-77
2022/12/20 04:41:42;;;;;;;36.55;19.07;;;;;;;1.75;85.05;101201.80;1656010;84;20915;-77
2022/12/20 04:44:27;;;;;;;31.70;17.75;;;;;;;1.74;85.09;101205.17;1654190;84;21049;-77
2022/12/20 04:47:12;;;;;;;28.83;16.85;;;;;;;1.75;85.10;101203.08;1624675;86;21585;-77
2022/12/20 04:49:57;;;;;;;36.35;18.30;;;;;;;1.76;85.09;101207.36;1630199;84;21034;-77
2022/12/20 04:55:45;;;;;;;36.63;18.30;;;;;;;1.76;85.09;101196.30;1617020;85;451668;-76
2022/12/20 04:58:30;;;;;;;33.53;16.52;;;;;;;1.76;85.09;101205.22;1621036;86;20930;-77
2022/12/20 05:01:15;;;;;;;34.57;18.43;;;;;;;1.76;85.07;101211.59;1623207;85;21582;-77
2022/12/20 05:04:00;;;;;;;35.78;17.45;;;;;;;1.74;85.04;101209.00;1622833;85;20930;-77
2022/12/20 05:06:45;;;;;;;31.60;17.35;;;;;;;1.71;85.04;101200.39;1621175;85;21026;-76
2022/12/20 05:09:30;;;;;;;32.75;17.12;;;;;;;1.68;85.04;101197.75;1621196;86;21423;-75
2022/12/20 05:12:15;;;;;;;31.90;17.17;;;;;;;1.65;85.03;101202.35;1622323;85;20945;-75
2022/12/20 05:15:00;;;;;;;31.30;17.67;;;;;;;1.61;85.03;101200.53;1620982;86;21525;-75
2022/12/20 05:17:45;;;;;;;32.85;17.70;;;;;;;1.58;85.02;101196.20;1623647;85;20937;-74
2022/12/20 05:20:31;;;;;;;34.75;19.12;;;;;;;1.57;85.08;101194.89;1622104;86;21009;-74
2022/12/20 05:26:19;;;;;;;31.05;17.20;;;;;;;1.57;85.12;101194.48;1622473;86;21027;-74
2022/12/20 05:29:05;;;;;;;32.80;18.67;;;;;;;1.55;85.10;101186.37;1624441;86;21355;-74
2022/12/20 05:31:50;;;;;;;36.38;18.77;;;;;;;1.53;85.08;101194.38;1621809;86;20988;-74
2022/12/20 05:34:35;;;;;;;33.13;17.70;;;;;;;1.52;85.09;101202.84;1625447;85;20996;-75
2022/12/20 05:37:21;;;;;;;37.73;19.73;;;;;;;1.41;84.86;101174.48;1623615;86;21644;-75
2022/12/20 05:40:07;;;;;;;34.15;18.82;;;;;;;1.41;84.86;101174.48;1625209;86;21359;-74
2022/12/20 05:42:51;;;;;;;39.30;20.25;;;;;;;1.45;85.08;101183.95;1629157;85;20989;-74
2022/12/20 05:45:37;;;;;;;43.28;20.32;;;;;;;1.44;85.08;101189.00;1628824;85;21013;-74
2022/12/20 05:48:21;;;;;;;38.40;19.87;;;;;;;1.41;85.08;101183.81;1626808;85;21419;-73
2022/12/20 05:51:06;;;;;;;38.67;19.10;;;;;;;1.38;85.10;101192.64;1632034;84;707610;-73
2022/12/20 05:53:51;;;;;;;32.65;17.60;;;;;;;1.38;85.11;101187.54;1637693;85;20965;-75
2022/12/20 05:56:36;;;;;;;34.75;17.73;;;;;;;1.35;85.10;101196.36;1634231;85;21532;-76
2022/12/20 05:59:21;;;;;;;36.50;18.65;;;;;;;1.33;85.11;101203.55;1638032;85;21013;-76
2022/12/20 06:02:06;;;;;;;33.38;18.90;;;;;;;1.32;85.13;101206.91;1641846;85;21422;-76
2022/12/20 06:04:50;;;;;;;33.92;17.65;;;;;;;1.35;85.20;101212.92;1634368;85;21365;-76
2022/12/20 06:07:35;;;;;;;33.67;18.70;;;;;;;1.36;85.21;101218.06;1636608;85;20945;-75
2022/12/20 06:10:20;;;;;;;32.05;17.70;;;;;;;1.38;85.22;101228.30;1637602;85;21937;-75
2022/12/20 06:13:07;;;;;;;32.10;19.23;;;;;;;1.41;85.22;101220.76;1636408;85;21812;-76
2022/12/20 06:15:52;;;;;;;38.17;19.80;;;;;;;1.43;85.26;101217.44;1636664;85;21396;-75
2022/12/20 06:18:37;;;;;;;33.83;18.32;;;;;;;1.45;85.24;101211.98;1635405;85;20934;-76
2022/12/20 06:21:22;;;;;;;37.35;19.12;;;;;;;1.47;85.25;101210.34;1634421;85;21525;-75
2022/12/20 06:24:07;;;;;;;37.13;20.33;;;;;;;1.49;85.23;101208.71;1635669;85;21468;-75
2022/12/20 06:26:52;;;;;;;34.00;18.80;;;;;;;1.50;85.25;101206.62;1634536;85;21005;-75
2022/12/20 06:29:37;;;;;;;37.25;19.45;;;;;;;1.51;85.23;101205.80;1633786;85;21613;-76
2022/12/20 06:32:22;;;;;;;34.05;18.27;;;;;;;1.53;85.24;101192.69;1636491;85;21432;-76
2022/12/20 06:35:08;;;;;;;36.70;20.20;;;;;;;1.54;85.25;101193.55;1636551;85;21035;-75
2022/12/20 06:37:53;;;;;;;25.60;14.45;;;;;;;1.55;85.29;101201.25;1635107;85;21015;-75
2022/12/20 06:40:38;;;;;;;33.67;18.67;;;;;;;1.57;85.29;101195.75;1670757;83;21948;-76
2022/12/20 06:43:23;;;;;;;42.03;20.72;;;;;;;1.59;85.29;101200.89;1664365;83;20946;-76
2022/12/20 06:46:08;;;;;;;38.63;19.92;;;;;;;1.60;85.29;101213.69;1664153;83;20953;-75
2022/12/20 06:48:56;;;;;;;38.60;19.85;;;;;;;1.62;85.28;101213.32;1662640;83;20952;-76
2022/12/20 06:51:41;;;;;;;35.80;20.45;;;;;;;1.65;85.29;101206.17;1663945;83;21379;-76
2022/12/20 06:54:26;;;;;;;36.28;20.12;;;;;;;1.67;85.33;101203.27;1664039;83;20953;-76
2022/12/20 06:57:11;;;;;;;40.48;20.92;;;;;;;1.68;85.32;101193.52;1665059;83;20925;-76
2022/12/20 06:59:55;;;;;;;42.65;21.15;;;;;;;1.70;85.34;101193.16;1662987;83;20985;-76
2022/12/20 07:02:40;;;;;;;38.23;19.67;;;;;;;1.74;85.33;101189.02;1663556;83;337267;-76
2022/12/20 07:05:26;;;;;;;41.58;21.30;;;;;;;1.75;85.30;101188.19;1665120;83;21001;-76
2022/12/20 07:08:11;;;;;;;38.78;21.50;;;;;;;1.77;85.34;101187.41;1664740;83;20932;-76
2022/12/20 07:11:04;;;;;;;36.30;20.08;;;;;;;1.78;85.33;101189.14;1662312;83;20901;-76
2022/12/20 07:13:56;;;;;;;44.10;20.12;;;;;;;1.79;85.33;101198.52;1663096;83;21410;-75
2022/12/20 07:16:42;;;;;;;38.92;20.65;;;;;;;1.82;85.36;101201.58;1662864;83;20936;-76
2022/12/20 07:19:27;;;;;;;37.90;20.20;;;;;;;1.83;85.37;101202.89;1664389;83;21568;-76
2022/12/20 07:22:12;;;;;;;39.00;20.92;;;;;;;1.86;85.36;101198.30;1662514;83;21520;-75
2022/12/20 07:24:57;;;;;;;38.80;20.55;;;;;;;1.88;85.37;101201.34;1664196;83;20914;-76
2022/12/20 07:27:44;;;;;;;39.53;19.55;;;;;;;1.91;85.38;101211.62;1661882;83;21485;-75
2022/12/20 07:30:30;;;;;;;40.85;21.62;;;;;;;1.94;85.38;101212.13;1663719;83;20961;-76
2022/12/20 07:33:14;;;;;;;45.65;23.20;;;;;;;1.96;85.35;101206.66;1668046;83;21479;-76
2022/12/20 07:36:06;;;;;;;39.70;20.85;;;;;;;1.96;85.35;101211.34;1662264;83;20945;-75
2022/12/20 07:38:50;;;;;;;39.05;20.75;;;;;;;1.98;85.37;101209.70;1664477;83;21552;-76
2022/12/20 07:41:36;;;;;;;43.30;22.35;;;;;;;1.99;85.34;101207.61;1666176;83;20957;-75
2022/12/20 07:44:22;;;;;;;46.90;23.15;;;;;;;2.01;85.34;101205.10;1670377;83;20965;-75
2022/12/20 07:47:06;;;;;;;46.53;22.40;;;;;;;2.04;85.38;101217.08;1670528;83;26715;-75
2022/12/20 07:49:51;;;;;;;44.60;22.30;;;;;;;2.06;85.40;101226.50;1669315;83;20957;-76
2022/12/20 07:52:38;;;;;;;43.25;22.22;;;;;;;2.09;85.39;101225.69;1671674;83;21375;-76
2022/12/20 07:55:23;;;;;;;42.70;22.85;;;;;;;2.12;85.41;101225.37;1669011;83;20902;-76
2022/12/20 07:58:10;;;;;;;44.38;23.45;;;;;;;2.14;85.37;101219.90;1674554;83;21898;-76
2022/12/20 08:00:56;;;;;;;37.58;19.90;;;;;;;2.16;85.38;101214.84;1666597;83;20925;-76
2022/12/20 08:03:48;;;;;;;43.10;23.10;;;;;;;2.19;85.40;101223.85;1672301;83;21393;-76
2022/12/20 08:06:35;;;;;;;43.50;21.68;;;;;;;2.22;85.39;101222.25;1672326;83;20950;-76
2022/12/20 08:09:20;;;;;;;37.98;20.72;;;;;;;2.25;85.40;101216.37;1668348;83;21021;-76
2022/12/20 08:12:07;;;;;;;38.67;20.35;;;;;;;2.28;85.40;101225.38;1670271;83;21395;-75
2022/12/20 08:14:55;;;;;;;35.25;19.87;;;;;;;2.30;85.39;101228.42;1672214;83;20925;-76
2022/12/20 08:17:38;;;;;;;40.08;20.90;;;;;;;2.32;85.38;101229.34;1668764;83;21491;-76
2022/12/20 08:20:23;;;;;;;38.95;20.77;;;;;;;2.36;85.40;101221.77;1670306;83;21465;-76
2022/12/20 08:23:08;;;;;;;36.63;19.75;;;;;;;2.38;85.39;101220.98;1671817;83;20910;-74
2022/12/20 08:25:53;;;;;;;35.95;20.50;;;;;;;2.40;85.40;101221.89;1675695;83;20953;-73
2022/12/20 08:28:38;;;;;;;35.13;19.30;;;;;;;2.44;85.43;101226.25;1669726;83;20961;-74
2022/12/20 08:31:23;;;;;;;34.08;19.10;;;;;;;2.48;85.40;101214.44;1672785;83;20944;-74
2022/12/20 08:34:09;;;;;;;38.33;20.23;;;;;;;2.50;85.42;101217.48;1676321;83;21450;-74
2022/12/20 08:36:54;;;;;;;38.87;20.43;;;;;;;2.53;85.42;101207.77;1673047;83;21360;-74
2022/12/20 08:39:39;;;;;;;38.48;20.15;;;;;;;2.54;85.39;101203.11;1674133;83;20997;-74
2022/12/20 08:42:24;;;;;;;39.83;20.52;;;;;;;2.56;85.39;101209.13;1675416;83;20962;-74
2022/12/20 08:45:09;;;;;;;33.23;19.67;;;;;;;2.57;85.40;101193.84;1670743;83;20886;-74
2022/12/20 08:47:54;;;;;;;37.50;19.98;;;;;;;2.59;85.37;101188.78;1667957;83;21359;-74
2022/12/20 08:50:39;;;;;;;39.60;20.68;;;;;;;2.60;85.39;101201.55;1670351;83;20945;-74
2022/12/20 08:53:25;;;;;;;38.75;20.90;;;;;;;2.62;85.41;101198.63;1669668;83;21018;-74
2022/12/20 08:56:13;;;;;;;39.90;21.40;;;;;;;2.65;85.41;101210.19;1670475;83;20969;-74
2022/12/20 08:58:58;;;;;;;39.15;20.57;;;;;;;2.70;85.45;101210.31;1670573;83;22189;-76
2022/12/20 09:01:43;;;;;;;39.70;21.65;;;;;;;2.74;85.43;101216.36;1672568;83;20934;-74
2022/12/20 09:04:28;;;;;;;36.73;21.02;;;;;;;2.79;85.44;101204.57;1669820;83;21020;-74
2022/12/20 09:07:13;;;;;;;38.83;21.35;;;;;;;2.83;85.43;101204.69;1671151;83;20929;-74
2022/12/20 09:09:58;;;;;;;37.33;20.15;;;;;;;2.89;85.46;101206.11;1670407;83;21597;-74
2022/12/20 09:12:43;;;;;;;41.23;22.22;;;;;;;2.95;85.45;101196.46;1669666;83;20939;-74
2022/12/20 09:15:28;;;;;;;37.50;20.77;;;;;;;3.02;85.46;101207.70;1668308;83;20949;-75
2022/12/20 09:18:13;;;;;;;37.75;20.90;;;;;;;3.09;85.46;101200.63;1669498;83;21588;-74
2022/12/20 09:21:06;;;;;;;36.90;20.65;;;;;;;3.16;85.47;101196.94;1669941;83;20917;-74
2022/12/20 09:23:53;;;;;;;39.10;21.70;;;;;;;3.26;85.50;101181.41;1670820;83;20969;-74
2022/12/20 09:26:39;;;;;;;37.17;21.15;;;;;;;3.40;85.49;101182.59;1670520;83;20926;-74
2022/12/20 09:29:24;;;;;;;;;;;;;;;3.52;85.47;101189.66;1673125;83;20953;-74
2022/12/20 09:32:09;;;;;;;35.65;19.02;;;;;;;3.61;85.41;101186.03;1669657;83;20151;-75
2022/12/20 09:34:53;;;;;;;34.27;19.48;;;;;;;3.65;85.38;101182.25;1672496;83;21372;-75
2022/12/20 09:37:39;;;;;;;35.58;19.52;;;;;;;3.68;85.38;101185.30;1675765;83;21535;-74
2022/12/20 09:40:29;;;;;;;33.78;19.52;;;;;;;3.71;85.41;101180.24;1671273;83;26821;-74
2022/12/20 09:43:16;;;;;;;33.63;19.07;;;;;;;3.75;85.39;101183.31;1669487;83;21001;-74
2022/12/20 09:46:03;;;;;;;36.88;20.52;;;;;;;3.79;85.41;101184.24;1664373;83;20901;-74
2022/12/20 09:48:48;;;;;;;44.08;22.45;;;;;;;3.80;85.35;101190.67;1664970;83;21552;-74
2022/12/20 09:52:27;;;;;;;40.12;22.42;;;;;;;3.80;85.34;101189.80;1666082;83;21363;-74
2022/12/20 09:55:25;;;;;;;36.50;19.70;;;;;;;3.81;85.35;101196.65;1661792;83;21335;-74
2022/12/20 09:58:24;;;;;;;36.58;20.45;;;;;;;3.79;85.22;101186.38;1661971;83;21485;-74
2022/12/20 10:01:19;;;;;;;38.50;21.02;;;;;;;3.75;85.27;101167.97;1667734;83;21437;-74
2022/12/20 10:04:08;;;;;;;37.40;20.23;;;;;;;3.72;85.25;101170.46;1667308;83;20941;-74
2022/12/20 10:07:22;;;;;;;40.03;20.50;;;;;;;3.67;85.21;101170.78;1663887;83;21086;-74
2022/12/20 10:10:36;;;;;;;34.65;20.52;;;;;;;3.62;85.22;101172.41;1639071;85;21396;-74
2022/12/20 10:13:46;;;;;;;36.33;20.68;;;;;;;3.58;85.25;101168.92;1663057;83;21522;-74
2022/12/20 10:16:44;;;;;;;33.75;20.17;;;;;;;3.56;85.26;101182.09;1662794;83;20957;-74
2022/12/20 10:20:07;;;;;;;40.50;21.45;;;;;;;3.55;85.25;101176.53;1661213;83;21453;-74
2022/12/20 10:23:03;;;;;;;36.83;20.50;;;;;;;3.54;85.27;101172.25;1663671;83;20949;-75
2022/12/20 10:25:51;;;;;;;40.15;20.60;;;;;;;3.51;85.23;101171.31;1661731;83;20961;-75
2022/12/20 10:28:37;;;;;;;41.63;21.12;;;;;;;3.48;85.23;101172.53;1655831;83;21460;-74
2022/12/20 10:31:22;;;;;;;36.05;20.68;;;;;;;3.44;85.19;101167.77;1661457;83;20945;-75
2022/12/20 10:34:07;;;;;;;36.45;21.37;;;;;;;3.42;85.20;101176.23;1660876;83;21450;-74
2022/12/20 10:37:14;;;;;;;35.15;20.37;;;;;;;3.41;85.17;101173.22;1665554;83;20968;-75
2022/12/20 10:39:59;;;;;;;40.28;21.40;;;;;;;3.39;85.23;101174.88;1669248;83;21474;-75
2022/12/20 10:42:45;;;;;;;37.80;20.20;;;;;;;3.39;85.24;101173.60;1666898;83;21619;-75
2022/12/20 10:45:37;;;;;;;40.27;21.57;;;;;;;3.40;85.27;101163.83;1674773;83;21297;-74
2022/12/20 10:48:39;;;;;;;43.30;22.67;;;;;;;3.42;85.27;101160.89;1673042;83;20942;-74
2022/12/20 10:51:24;;;;;;;39.75;21.48;;;;;;;3.43;85.26;101156.23;1674979;83;21451;-74
2022/12/20 10:54:22;;;;;;;36.85;21.70;;;;;;;3.45;85.25;101159.27;1673999;83;21380;-74
2022/12/20 10:57:24;;;;;;;44.38;22.25;;;;;;;3.47;85.28;101150.34;1673227;83;20984;-75
2022/12/20 11:00:13;;;;;;;44.27;22.70;;;;;;;3.50;85.27;101148.72;1623802;86;21497;-75
2022/12/20 11:03:13;;;;;;;38.50;21.73;;;;;;;3.54;85.30;101149.66;1608441;86;21132;-74
2022/12/20 11:06:03;;;;;;;39.98;20.95;;;;;;;3.58;85.30;101155.28;1624696;86;22628;-75
2022/12/20 11:08:48;;;;;;;39.27;22.07;;;;;;;3.62;85.31;101154.51;1608314;87;21370;-74
2022/12/20 11:11:33;;;;;;;42.30;22.67;;;;;;;3.68;85.32;101157.16;1632963;85;21509;-74
2022/12/20 11:14:20;;;;;;;41.02;22.15;;;;;;;3.72;85.31;101154.25;1634526;86;21148;-75
2022/12/20 11:17:20;;;;;;;;;;;;;;;3.76;85.30;101149.23;1636248;85;21635;-75
2022/12/20 11:20:46;;;;;;;43.35;20.82;;;;;;;3.82;85.29;101151.05;1632913;86;21312;-74
2022/12/20 11:23:47;;;;;;;40.05;22.73;;;;;;;3.88;85.29;101143.09;1633704;86;21257;-74
2022/12/20 11:26:52;;;;;;;41.60;21.30;;;;;;;3.94;85.27;101134.67;1604386;87;21566;-74
2022/12/20 11:30:15;;;;;;;36.77;20.88;;;;;;;3.98;85.25;101133.89;1632994;86;21510;-74
2022/12/20 11:33:33;;;;;;;38.80;21.27;;;;;;;4.03;85.26;101127.58;1634696;86;21108;-74
2022/12/20 11:36:23;;;;;;;42.13;22.62;;;;;;;4.06;85.25;101111.87;1664313;83;21662;-74
2022/12/20 11:39:30;;;;;;;37.88;20.55;;;;;;;4.10;85.24;101105.97;1679942;83;21089;-74
2022/12/20 11:42:32;;;;;;;36.70;20.88;;;;;;;4.14;85.22;101101.78;1678573;83;20984;-74
2022/12/20 11:45:34;;;;;;;38.33;20.70;;;;;;;4.14;85.17;101103.05;1665321;83;21116;-74
2022/12/20 11:48:43;;;;;;;40.40;22.48;;;;;;;4.13;85.14;101105.17;1664515;83;21108;-74
2022/12/20 11:51:47;;;;;;;39.60;22.15;;;;;;;4.13;85.15;101097.49;1666089;83;21095;-74
2022/12/20 11:54:47;;;;;;;40.78;22.58;;;;;;;4.13;85.12;101087.26;1664233;83;21040;-74
2022/12/20 11:57:40;;;;;;;41.42;21.70;;;;;;;4.13;85.17;101089.81;1663667;83;21040;-75
2022/12/20 12:00:26;;;;;;;44.88;22.73;;;;;;;4.12;85.09;101093.20;1664450;83;21064;-74
2022/12/20 12:03:19;;;;;;;40.83;22.58;;;;;;;4.10;85.10;101088.06;1662762;83;21104;-74
2022/12/20 12:06:19;;;;;;;43.42;22.02;;;;;;;4.13;85.11;101091.09;1663777;83;21563;-74
2022/12/20 12:09:09;;;;;;;41.40;22.55;;;;;;;4.13;85.12;101085.97;1666933;83;21088;-74
2022/12/20 12:12:05;;;;;;;45.63;23.12;;;;;;;4.15;85.11;101090.29;1660368;83;21859;-74
2022/12/20 12:15:10;;;;;;;;;;;;;;;4.15;85.09;101086.45;1666500;83;21100;-74
2022/12/20 12:18:24;;;;;;;41.35;20.62;;;;;;;4.17;85.01;101080.05;1662459;83;20331;-74
2022/12/20 12:21:25;;;;;;;46.00;22.30;;;;;;;4.15;85.02;101074.07;1664446;83;21630;-75
2022/12/20 12:24:43;;;;;;;42.20;23.18;;;;;;;4.12;85.03;101063.36;1665220;83;21532;-74
2022/12/20 12:27:27;;;;;;;46.65;24.32;;;;;;;4.15;85.04;101068.53;1652008;83;21060;-74
2022/12/20 12:30:15;;;;;;;44.53;22.93;;;;;;;4.14;85.04;101074.48;1661861;83;21135;-75
2022/12/20 12:33:05;;;;;;;42.70;23.95;;;;;;;4.15;85.06;101067.67;1665632;83;21060;-74
2022/12/20 12:36:17;;;;;;;51.37;24.70;;;;;;;4.15;85.03;101069.81;1669868;83;21119;-75
2022/12/20 12:39:39;;;;;;;40.20;23.50;;;;;;;4.14;85.02;101064.25;1666484;83;21087;-74
2022/12/20 12:42:47;;;;;;;45.85;23.62;;;;;;;4.14;85.00;101062.11;1659131;83;21044;-74
2022/12/20 12:45:48;;;;;;;44.33;24.35;;;;;;;4.14;85.03;101043.78;1663835;83;21115;-74
2022/12/20 12:48:53;;;;;;;48.35;23.80;;;;;;;4.14;85.01;101046.34;1664658;83;21787;-74
2022/12/20 12:51:52;;;;;;;44.05;22.65;;;;;;;4.14;85.01;101042.50;1664446;83;21337;-73
2022/12/20 12:54:40;;;;;;;45.50;23.75;;;;;;;4.15;85.00;101033.13;1671517;83;21111;-75
2022/12/20 12:57:25;;;;;;;48.15;25.62;;;;;;;4.15;85.01;101030.56;1666935;83;21148;-75
2022/12/20 13:00:52;;;;;;;51.55;27.27;;;;;;;4.17;85.00;101032.70;1670467;83;21317;-75
2022/12/20 13:03:56;;;;;;;48.05;23.98;;;;;;;4.16;85.00;101033.11;1678169;83;21070;-74
2022/12/20 13:06:50;;;;;;;45.88;24.37;;;;;;;4.17;85.00;101032.70;1678332;83;21044;-75
2022/12/20 13:09:38;;;;;;;47.38;24.37;;;;;;;4.17;84.98;101037.81;1668077;83;21505;-75